createdAt,value
2023-02-11T00:00:11.413Z,14.23
2023-02-11T00:02:41.129Z,14.45
2023-02-11T00:05:11.677Z,13.60
2023-02-11T00:07:41.374Z,13.05
2023-02-11T00:10:11.936Z,12.55
2023-02-11T00:12:44.105Z,13.52
2023-02-11T00:15:13.991Z,14.32
2023-02-11T00:17:43.652Z,13.70
2023-02-11T00:20:13.528Z,14.77
2023-02-11T00:22:43.747Z,14.98
2023-02-11T00:25:13.360Z,15.32
2023-02-11T00:27:45.530Z,15.57
2023-02-11T00:30:16.648Z,15.48
2023-02-11T00:32:46.247Z,17.13
2023-02-11T00:35:15.997Z,16.58
2023-02-11T00:37:45.785Z,15.77
2023-02-11T00:40:16.142Z,16.65
2023-02-11T00:42:48.913Z,15.38
2023-02-11T00:45:18.931Z,17.02
2023-02-11T00:47:48.486Z,16.58
2023-02-11T00:50:18.164Z,17.58
2023-02-11T00:52:47.730Z,16.50
2023-02-11T00:55:17.433Z,16.70
2023-02-11T00:57:49.878Z,17.52
2023-02-11T01:00:20.338Z,17.50
2023-02-11T01:02:49.915Z,15.82
2023-02-11T01:05:19.626Z,17.42
2023-02-11T01:07:51.319Z,15.77
2023-02-11T01:10:21.166Z,16.70
2023-02-11T01:12:53.350Z,17.48
2023-02-11T01:15:23.451Z,15.77
2023-02-11T01:17:53.347Z,18.50
2023-02-11T01:20:25.463Z,15.80
2023-02-11T01:22:55.108Z,18.15
2023-02-11T01:25:24.722Z,17.05
2023-02-11T01:27:56.901Z,16.85
2023-02-11T01:30:26.589Z,16.75
2023-02-11T01:32:56.161Z,16.33
2023-02-11T01:35:25.843Z,18.92
2023-02-11T01:37:55.453Z,17.77
2023-02-11T01:40:25.216Z,17.55
2023-02-11T01:42:57.392Z,18.10
2023-02-11T01:45:59.947Z,18.33
2023-02-11T01:48:33.206Z,18.25
2023-02-11T01:51:08.846Z,19.30
2023-02-11T01:56:36.491Z,18.60
2023-02-11T01:59:13.154Z,19.85
2023-02-11T02:01:47.574Z,18.30
2023-02-11T02:04:21.305Z,21.75
2023-02-11T02:06:55.776Z,18.08
2023-02-11T02:09:28.348Z,20.33
2023-02-11T02:12:00.530Z,18.80
2023-02-11T02:14:33.658Z,20.40
2023-02-11T02:17:03.497Z,19.35
2023-02-11T02:20:12.030Z,20.27
2023-02-11T02:23:16.237Z,18.73
2023-02-11T02:26:33.236Z,20.17
2023-02-11T02:29:26.883Z,19.60
2023-02-11T02:32:28.678Z,21.25
2023-02-11T02:35:10.649Z,19.25
2023-02-11T02:37:46.192Z,21.55
2023-02-11T02:40:22.732Z,19.73
2023-02-11T02:42:53.703Z,19.40
2023-02-11T02:45:23.660Z,20.90
2023-02-11T02:47:53.266Z,21.20
2023-02-11T02:50:32.552Z,20.95
2023-02-11T02:53:16.065Z,20.40
2023-02-11T02:55:59.466Z,19.60
2023-02-11T02:58:56.818Z,21.30
2023-02-11T03:01:37.560Z,20.92
2023-02-11T03:04:16.327Z,20.85
2023-02-11T03:06:54.674Z,21.13
2023-02-11T03:09:29.936Z,21.05
2023-02-11T03:11:59.867Z,21.27
2023-02-11T03:14:30.924Z,19.95
2023-02-11T03:17:03.748Z,21.23
2023-02-11T03:19:37.666Z,19.98
2023-02-11T03:22:14.777Z,19.45
2023-02-11T03:24:44.923Z,18.73
2023-02-11T03:27:21.149Z,20.05
2023-02-11T03:29:58.390Z,19.10
2023-02-11T03:32:31.702Z,18.67
2023-02-11T03:35:06.638Z,18.40
2023-02-11T03:37:42.967Z,15.33
2023-02-11T03:40:16.365Z,18.63
2023-02-11T03:42:49.136Z,17.23
2023-02-11T03:45:23.212Z,19.17
2023-02-11T03:47:57.676Z,19.30
2023-02-11T03:50:29.679Z,18.63
2023-02-11T03:53:04.478Z,18.55
2023-02-11T03:55:37.539Z,18.70
2023-02-11T03:58:07.487Z,18.30
2023-02-11T04:00:39.933Z,18.02
2023-02-11T04:03:10.321Z,16.33
2023-02-11T04:05:40.432Z,17.02
2023-02-11T04:08:12.729Z,19.08
2023-02-11T04:10:42.266Z,18.10
2023-02-11T04:13:11.826Z,17.55
2023-02-11T04:15:41.642Z,18.85
2023-02-11T04:18:11.179Z,17.15
2023-02-11T04:20:40.693Z,19.20
2023-02-11T04:23:12.931Z,16.40
2023-02-11T04:25:43.740Z,16.58
2023-02-11T04:28:13.320Z,16.33
2023-02-11T04:30:42.968Z,16.80
2023-02-11T04:33:12.551Z,16.75
2023-02-11T04:35:42.193Z,17.23
2023-02-11T04:38:14.444Z,15.32
2023-02-11T04:40:44.166Z,15.13
2023-02-11T04:43:13.948Z,14.85
2023-02-11T04:45:43.952Z,14.48
2023-02-11T04:48:13.646Z,14.23
2023-02-11T04:50:43.969Z,13.55
2023-02-11T04:53:16.111Z,13.15
2023-02-11T04:55:45.669Z,13.75
2023-02-11T04:58:15.322Z,13.80
2023-02-11T05:00:44.974Z,13.52
2023-02-11T05:03:14.808Z,14.00
2023-02-11T05:05:45.797Z,12.88
2023-02-11T05:08:17.954Z,12.63
2023-02-11T05:10:49.410Z,11.45
2023-02-11T05:13:18.969Z,11.63
2023-02-11T05:15:48.928Z,11.38
2023-02-11T05:18:18.890Z,11.70
2023-02-11T05:20:48.433Z,10.73
2023-02-11T05:23:20.664Z,11.23
2023-02-11T05:25:50.664Z,11.00
2023-02-11T05:28:20.548Z,9.57
2023-02-11T05:30:50.407Z,9.60
2023-02-11T05:33:20.310Z,8.68
2023-02-11T05:35:50.128Z,8.05
2023-02-11T05:38:22.407Z,7.75
2023-02-11T05:40:51.997Z,6.80
2023-02-11T05:43:22.073Z,7.18
2023-02-11T05:45:51.994Z,6.70
2023-02-11T05:48:21.828Z,6.88
2023-02-11T05:50:51.423Z,7.00
2023-02-11T05:53:24.628Z,7.10
2023-02-11T05:55:54.200Z,6.68
2023-02-11T05:58:23.751Z,7.50
2023-02-11T06:00:53.302Z,7.55
2023-02-11T06:03:23.518Z,6.88
2023-02-11T06:05:53.298Z,6.13
2023-02-11T06:08:25.675Z,6.38
2023-02-11T06:10:55.281Z,8.60
2023-02-11T06:13:24.898Z,6.45
2023-02-11T06:16:01.537Z,6.10
2023-02-11T06:18:33.563Z,5.22
2023-02-11T06:21:03.980Z,5.35
2023-02-11T06:23:39.035Z,5.30
2023-02-11T06:26:10.733Z,5.43
2023-02-11T06:28:42.047Z,5.20
2023-02-11T06:31:12.343Z,5.07
2023-02-11T06:33:42.062Z,4.32
2023-02-11T06:36:17.228Z,4.32
2023-02-11T06:38:49.760Z,4.60
2023-02-11T06:41:21.079Z,4.38
2023-02-11T06:43:51.629Z,4.65
2023-02-11T06:46:21.430Z,4.50
2023-02-11T06:48:51.041Z,4.45
2023-02-11T06:51:20.726Z,4.80
2023-02-11T06:53:52.914Z,4.75
2023-02-11T06:56:24.336Z,4.93
2023-02-11T06:58:56.178Z,6.30
2023-02-11T07:01:27.155Z,4.60
2023-02-11T07:03:57.050Z,5.28
2023-02-11T07:06:29.688Z,5.10
2023-02-11T07:09:01.975Z,5.40
2023-02-11T07:11:32.640Z,5.38
2023-02-11T07:14:04.546Z,5.55
2023-02-11T07:16:34.796Z,5.00
2023-02-11T07:19:04.439Z,6.13
2023-02-11T07:21:34.040Z,5.80
2023-02-11T07:24:11.070Z,7.05
2023-02-11T07:26:41.325Z,7.57
2023-02-11T07:29:10.955Z,8.18
2023-02-11T07:31:40.642Z,8.20
2023-02-11T07:34:10.316Z,8.20
2023-02-11T07:36:40.027Z,8.75
2023-02-11T07:39:12.204Z,9.77
2023-02-11T07:41:42.965Z,9.38
2023-02-11T07:44:12.743Z,10.07
2023-02-11T07:46:43.155Z,9.02
2023-02-11T07:49:12.916Z,10.75
2023-02-11T07:51:42.492Z,10.80
2023-02-11T07:54:15.077Z,10.45
2023-02-11T07:56:44.614Z,10.35
2023-02-11T07:59:14.828Z,9.82
2023-02-11T08:01:44.428Z,11.27
2023-02-11T08:04:14.298Z,10.40
2023-02-11T08:06:45.598Z,10.68
2023-02-11T08:09:19.400Z,11.10
2023-02-11T08:11:48.985Z,11.30
2023-02-11T08:14:20.534Z,13.20
2023-02-11T08:16:50.456Z,11.88
2023-02-11T08:19:20.260Z,11.73
2023-02-11T08:21:49.857Z,11.88
2023-02-11T08:24:22.646Z,12.38
2023-02-11T08:26:52.615Z,12.02
2023-02-11T08:29:22.197Z,12.07
2023-02-11T08:31:51.841Z,13.00
2023-02-11T08:34:22.113Z,13.20
2023-02-11T08:36:52.055Z,12.30
2023-02-11T08:39:25.498Z,12.98
2023-02-11T08:41:56.998Z,12.82
2023-02-11T08:44:27.124Z,13.25
2023-02-11T08:46:56.741Z,12.85
2023-02-11T08:49:26.418Z,12.48
2023-02-11T08:51:56.481Z,12.63
2023-02-11T08:54:28.659Z,12.60
2023-02-11T08:56:58.241Z,13.75
2023-02-11T08:59:27.891Z,12.73
2023-02-11T09:01:58.025Z,13.20
2023-02-11T09:04:27.890Z,12.65
2023-02-11T09:06:57.473Z,12.05
2023-02-11T09:09:29.627Z,13.02
2023-02-11T09:12:01.173Z,11.73
2023-02-11T09:14:30.817Z,10.25
2023-02-11T09:17:00.522Z,11.18
2023-02-11T09:19:30.155Z,12.13
2023-02-11T09:21:59.822Z,11.52
2023-02-11T09:24:31.963Z,11.63
2023-02-11T09:27:01.592Z,11.35
2023-02-11T09:29:31.177Z,11.20
2023-02-11T09:32:00.914Z,10.95
2023-02-11T09:34:30.637Z,10.25
2023-02-11T09:37:00.241Z,11.07
2023-02-11T09:39:32.507Z,11.05
2023-02-11T09:42:37.157Z,10.43
2023-02-11T09:45:08.302Z,11.15
2023-02-11T09:47:47.981Z,9.70
2023-02-11T09:50:22.116Z,10.55
2023-02-11T09:52:58.085Z,10.88
2023-02-11T09:55:34.299Z,8.88
2023-02-11T09:58:07.919Z,9.13
2023-02-11T10:00:43.016Z,8.75
2023-02-11T10:03:25.921Z,10.57
2023-02-11T10:06:25.452Z,10.90
2023-02-11T10:09:05.158Z,10.52
2023-02-11T10:11:49.841Z,11.02
2023-02-11T10:14:35.758Z,10.10
2023-02-11T10:17:18.555Z,10.73
2023-02-11T10:20:05.720Z,10.35
2023-02-11T10:22:41.859Z,10.05
2023-02-11T10:25:22.853Z,11.23
2023-02-11T10:27:57.349Z,11.13
2023-02-11T10:30:33.629Z,10.65
2023-02-11T10:33:06.992Z,9.80
2023-02-11T10:35:36.596Z,10.55
2023-02-11T10:38:06.160Z,9.43
2023-02-11T10:40:35.728Z,10.82
2023-02-11T10:43:13.114Z,9.48
2023-02-11T10:45:45.868Z,9.27
2023-02-11T10:48:44.209Z,8.95
2023-02-11T10:51:23.872Z,9.18
2023-02-11T10:54:15.141Z,9.60
2023-02-11T10:56:50.140Z,9.55
2023-02-11T10:59:28.955Z,9.87
2023-02-11T11:02:01.049Z,9.88
2023-02-11T11:04:41.991Z,9.48
2023-02-11T11:07:22.618Z,9.38
2023-02-11T11:09:59.151Z,9.07
2023-02-11T11:12:32.471Z,9.50
2023-02-11T11:15:18.883Z,10.35
2023-02-11T11:20:23.182Z,8.98
2023-02-11T11:22:55.302Z,8.27
2023-02-11T11:25:27.407Z,9.23
2023-02-11T11:28:00.425Z,8.13
2023-02-11T11:30:41.245Z,8.40
2023-02-11T11:33:23.119Z,8.73
2023-02-11T11:36:02.377Z,7.57
2023-02-11T11:38:34.332Z,7.75
2023-02-11T11:41:21.432Z,8.50
2023-02-11T11:44:03.944Z,7.53
2023-02-11T11:46:38.747Z,7.90
2023-02-11T11:49:28.115Z,7.45
2023-02-11T11:52:10.833Z,8.30
2023-02-11T11:54:41.426Z,7.18
2023-02-11T11:57:17.924Z,7.03
2023-02-11T11:59:47.911Z,7.75
2023-02-11T12:02:44.618Z,8.07
2023-02-11T12:05:20.405Z,7.50
2023-02-11T12:10:41.354Z,7.55
2023-02-11T12:13:23.835Z,7.13
2023-02-11T12:16:03.782Z,7.25
2023-02-11T12:18:55.802Z,7.45
2023-02-11T12:21:38.569Z,7.07
2023-02-11T12:24:27.625Z,6.53
2023-02-11T12:27:02.867Z,6.90
2023-02-11T12:29:40.055Z,7.60
2023-02-11T12:32:20.389Z,6.43
2023-02-11T12:35:22.432Z,6.10
2023-02-11T12:38:15.937Z,6.72
2023-02-11T12:40:48.901Z,6.40
2023-02-11T12:43:23.581Z,6.25
2023-02-11T12:46:14.577Z,6.18
2023-02-11T12:49:03.305Z,6.75
2023-02-11T12:51:45.711Z,5.93
2023-02-11T12:54:26.551Z,6.18
2023-02-11T12:57:02.609Z,6.93
2023-02-11T12:59:41.121Z,6.50
2023-02-11T13:02:22.298Z,6.20
2023-02-11T13:04:56.730Z,6.85
2023-02-11T13:07:31.338Z,6.18
2023-02-11T13:10:08.335Z,7.15
2023-02-11T13:12:52.008Z,7.00
2023-02-11T13:15:21.717Z,6.53
2023-02-11T13:18:01.145Z,6.70
2023-02-11T13:20:42.352Z,7.05
2023-02-11T13:23:24.247Z,6.93
2023-02-11T13:26:02.242Z,7.45
2023-02-11T13:28:43.075Z,7.95
2023-02-11T13:31:16.544Z,8.50
2023-02-11T13:33:49.598Z,8.20
2023-02-11T13:36:22.182Z,7.82
2023-02-11T13:39:02.502Z,7.28
2023-02-11T13:41:37.792Z,7.95
2023-02-11T13:44:24.894Z,7.65
2023-02-11T13:46:59.752Z,7.57
2023-02-11T13:49:35.345Z,6.85
2023-02-11T13:52:07.542Z,8.18
2023-02-11T13:54:40.690Z,8.18
2023-02-11T13:57:45.914Z,8.40
2023-02-11T14:00:51.440Z,9.00
2023-02-11T14:03:46.164Z,8.15
2023-02-11T14:06:31.748Z,8.52
2023-02-11T14:09:04.398Z,8.90
2023-02-11T14:11:51.236Z,8.55
2023-02-11T14:14:31.438Z,8.90
2023-02-11T14:17:31.561Z,9.50
2023-02-11T14:20:05.310Z,10.10
2023-02-11T14:22:49.194Z,9.95
2023-02-11T14:25:24.657Z,9.38
2023-02-11T14:27:57.401Z,10.02
2023-02-11T14:30:45.645Z,10.90
2023-02-11T14:33:50.019Z,9.93
2023-02-11T14:36:44.729Z,10.00
2023-02-11T14:39:26.837Z,10.65
2023-02-11T14:41:57.348Z,9.60
2023-02-11T14:44:30.642Z,9.65
2023-02-11T14:47:00.323Z,10.02
2023-02-11T14:49:32.232Z,10.38
2023-02-11T14:52:17.347Z,10.00
2023-02-11T14:54:47.659Z,9.40
2023-02-11T14:57:19.340Z,10.18
2023-02-11T14:59:59.208Z,10.70
2023-02-11T15:02:33.059Z,9.75
2023-02-11T15:05:19.088Z,9.60
2023-02-11T15:07:54.286Z,10.07
2023-02-11T15:10:31.445Z,10.13
2023-02-11T15:13:02.384Z,9.18
2023-02-11T15:15:34.682Z,11.00
2023-02-11T15:18:06.221Z,9.18
2023-02-11T15:20:37.060Z,9.45
2023-02-11T15:23:19.928Z,10.18
2023-02-11T15:25:53.017Z,10.68
2023-02-11T15:28:26.274Z,9.57
2023-02-11T15:31:04.447Z,10.43
2023-02-11T15:33:35.297Z,9.75
2023-02-11T15:36:05.769Z,8.60
2023-02-11T15:38:37.867Z,9.68
2023-02-11T15:41:08.156Z,9.02
2023-02-11T15:43:46.643Z,10.02
2023-02-11T15:46:19.644Z,9.30
2023-02-11T15:48:51.501Z,9.02
2023-02-11T15:51:25.410Z,9.10
2023-02-11T15:54:00.572Z,8.45
2023-02-11T15:56:33.296Z,8.60
2023-02-11T15:59:13.679Z,8.45
2023-02-11T16:01:43.701Z,8.75
2023-02-11T16:04:20.732Z,8.40
2023-02-11T16:06:51.445Z,8.45
2023-02-11T16:09:34.092Z,9.00
2023-02-11T16:12:07.564Z,9.55
2023-02-11T16:14:39.679Z,8.63
2023-02-11T16:17:12.406Z,8.35
2023-02-11T16:19:47.251Z,9.10
2023-02-11T16:22:20.588Z,7.70
2023-02-11T16:24:55.201Z,9.23
2023-02-11T16:27:28.607Z,8.52
2023-02-11T16:29:59.107Z,8.30
2023-02-11T16:32:30.777Z,8.52
2023-02-11T16:35:02.830Z,7.78
2023-02-11T16:37:32.645Z,9.43
2023-02-11T16:40:04.861Z,8.70
2023-02-11T16:42:34.398Z,8.63
2023-02-11T16:45:04.181Z,7.75
2023-02-11T16:47:34.478Z,7.22
2023-02-11T16:50:05.125Z,8.27
2023-02-11T16:52:34.954Z,8.35
2023-02-11T16:55:08.798Z,8.93
2023-02-11T16:57:38.429Z,8.15
2023-02-11T17:00:10.429Z,7.57
2023-02-11T17:02:41.185Z,8.27
2023-02-11T17:05:19.290Z,8.63
2023-02-11T17:07:48.992Z,9.30
2023-02-11T17:10:23.606Z,9.48
2023-02-11T17:12:53.975Z,8.48
2023-02-11T17:15:23.653Z,10.35
2023-02-11T17:17:53.218Z,10.10
2023-02-11T17:20:23.281Z,9.88
2023-02-11T17:22:53.516Z,9.90
2023-02-11T17:25:26.138Z,10.20
2023-02-11T17:27:55.900Z,9.75
2023-02-11T17:30:25.745Z,10.43
2023-02-11T17:32:55.301Z,10.63
2023-02-11T17:35:24.942Z,11.45
2023-02-11T17:37:54.557Z,11.38
2023-02-11T17:40:26.833Z,11.05
2023-02-11T17:42:56.431Z,10.90
2023-02-11T17:45:26.102Z,11.50
2023-02-11T17:47:55.674Z,11.90
2023-02-11T17:50:27.103Z,12.27
2023-02-11T17:52:58.433Z,11.88
2023-02-11T17:55:30.606Z,11.60
2023-02-11T17:58:00.250Z,12.40
2023-02-11T18:00:30.844Z,12.05
2023-02-11T18:03:02.897Z,11.60
2023-02-11T18:05:37.313Z,11.40
2023-02-11T18:08:08.366Z,11.50
2023-02-11T18:10:44.267Z,12.32
2023-02-11T18:13:13.872Z,13.07
2023-02-11T18:15:43.483Z,12.40
2023-02-11T18:18:13.195Z,12.30
2023-02-11T18:20:43.508Z,12.80
2023-02-11T18:23:13.546Z,13.05
2023-02-11T18:25:46.655Z,13.13
2023-02-11T18:28:16.246Z,12.90
2023-02-11T18:30:45.876Z,12.70
2023-02-11T18:33:15.886Z,12.70
2023-02-11T18:35:47.219Z,13.45
2023-02-11T18:38:16.812Z,13.00
2023-02-11T18:40:50.541Z,13.48
2023-02-11T18:43:20.565Z,12.45
2023-02-11T18:45:52.285Z,12.63
2023-02-11T18:48:22.077Z,13.75
2023-02-11T18:50:51.625Z,13.05
2023-02-11T18:53:21.252Z,12.70
2023-02-11T18:55:53.800Z,11.98
2023-02-11T18:58:23.927Z,11.90
2023-02-11T19:00:53.508Z,12.07
2023-02-11T19:03:23.077Z,11.13
2023-02-11T19:05:54.650Z,11.27
2023-02-11T19:08:24.410Z,11.48
2023-02-11T19:10:56.591Z,10.77
2023-02-11T19:13:27.476Z,11.07
2023-02-11T19:15:57.076Z,10.73
2023-02-11T19:18:26.651Z,10.65
2023-02-11T19:20:56.253Z,10.85
2023-02-11T19:23:25.825Z,10.82
2023-02-11T19:25:57.944Z,10.80
2023-02-11T19:28:27.547Z,11.15
2023-02-11T19:30:57.220Z,11.27
2023-02-11T19:33:27.189Z,12.63
2023-02-11T19:35:56.727Z,11.75
2023-02-11T19:38:26.241Z,11.77
2023-02-11T19:41:01.105Z,11.70
2023-02-11T19:43:31.060Z,12.85
2023-02-11T19:46:01.007Z,12.48
2023-02-11T19:48:30.672Z,12.40
2023-02-11T19:51:00.731Z,11.65
2023-02-11T19:53:30.321Z,12.35
2023-02-11T19:56:03.330Z,12.93
2023-02-11T19:58:32.889Z,13.18
2023-02-11T20:01:08.268Z,12.70
2023-02-11T20:03:40.201Z,15.07
2023-02-11T20:06:14.485Z,12.77
2023-02-11T20:08:44.453Z,13.10
2023-02-11T20:11:18.741Z,13.25
2023-02-11T20:13:49.241Z,13.95
2023-02-11T20:16:21.174Z,13.38
2023-02-11T20:18:52.280Z,13.80
2023-02-11T20:21:24.481Z,14.48
2023-02-11T20:23:54.599Z,13.98
2023-02-11T20:26:28.793Z,13.98
2023-02-11T20:29:02.226Z,15.05
2023-02-11T20:31:33.516Z,13.98
2023-02-11T20:34:03.675Z,15.70
2023-02-11T20:36:37.570Z,14.75
2023-02-11T20:39:09.124Z,15.73
2023-02-11T20:41:41.898Z,15.63
2023-02-11T20:44:13.278Z,14.40
2023-02-11T20:46:46.028Z,16.35
2023-02-11T20:49:16.959Z,16.45
2023-02-11T20:51:46.529Z,15.55
2023-02-11T20:54:17.855Z,16.55
2023-02-11T20:56:53.605Z,17.30
2023-02-11T21:01:56.244Z,16.48
2023-02-11T21:04:27.579Z,15.93
2023-02-11T21:06:58.998Z,17.13
2023-02-11T21:09:30.340Z,16.30
2023-02-11T21:12:02.931Z,16.88
2023-02-11T21:14:32.540Z,16.50
2023-02-11T21:17:02.433Z,16.42
2023-02-11T21:19:31.987Z,16.50
2023-02-11T21:22:01.853Z,16.88
2023-02-11T21:24:31.454Z,16.02
2023-02-11T21:27:03.851Z,16.42
2023-02-11T21:29:36.660Z,16.35
2023-02-11T21:32:10.176Z,15.18
2023-02-11T21:34:39.820Z,16.55
2023-02-11T21:37:09.375Z,16.65
2023-02-11T21:39:39.474Z,16.48
2023-02-11T21:42:11.662Z,17.25
2023-02-11T21:44:41.250Z,16.80
2023-02-11T21:47:10.791Z,16.80
2023-02-11T21:49:40.357Z,17.00
2023-02-11T21:52:09.871Z,15.98
2023-02-11T21:54:39.417Z,17.35
2023-02-11T21:57:11.535Z,18.55
2023-02-11T21:59:41.112Z,17.35
2023-02-11T22:02:11.888Z,19.13
2023-02-11T22:04:41.538Z,17.75
2023-02-11T22:07:12.675Z,16.65
2023-02-11T22:09:43.236Z,17.33
2023-02-11T22:12:15.396Z,18.08
2023-02-11T22:14:45.133Z,17.52
2023-02-11T22:17:14.830Z,18.15
2023-02-11T22:19:44.770Z,18.40
2023-02-11T22:22:18.204Z,18.90
2023-02-11T22:24:48.438Z,18.88
2023-02-11T22:27:20.828Z,19.67
2023-02-11T22:29:50.476Z,19.50
2023-02-11T22:32:20.096Z,21.00
2023-02-11T22:34:52.173Z,19.50
2023-02-11T22:37:23.168Z,18.02
2023-02-11T22:39:52.998Z,19.30
2023-02-11T22:42:25.709Z,18.05
2023-02-11T22:44:55.251Z,19.15
2023-02-11T22:47:24.857Z,18.50
2023-02-11T22:49:56.972Z,18.45
2023-02-11T22:52:26.519Z,18.83
2023-02-11T22:54:56.058Z,17.80
2023-02-11T22:57:29.186Z,18.10
2023-02-11T22:59:58.702Z,17.77
2023-02-11T23:02:28.251Z,16.77
2023-02-11T23:04:59.452Z,18.73
2023-02-11T23:07:29.097Z,17.45
2023-02-11T23:09:58.681Z,18.42
2023-02-11T23:12:30.964Z,19.45
2023-02-11T23:15:02.113Z,18.50
2023-02-11T23:17:33.329Z,17.65
2023-02-11T23:20:02.904Z,17.45
2023-02-11T23:22:32.734Z,17.55
2023-02-11T23:25:02.582Z,15.75
2023-02-11T23:27:34.744Z,17.40
2023-02-11T23:30:04.664Z,17.85
2023-02-11T23:32:34.432Z,18.15
2023-02-11T23:35:04.051Z,16.90
2023-02-11T23:37:33.962Z,17.23
2023-02-11T23:40:03.532Z,17.13
2023-02-11T23:42:35.645Z,16.13
2023-02-11T23:45:05.701Z,15.32
2023-02-11T23:47:35.467Z,17.33
2023-02-11T23:50:05.040Z,15.13
2023-02-11T23:52:34.673Z,17.13
2023-02-11T23:55:04.312Z,15.43
2023-02-11T23:57:37.456Z,15.45
